Time;durP1;ratioP1;P1;durP2;ratioP2;P2;SDS_P1;SDS_P2;PMS_P1;PMS_P2;Temp;Humidity;BMP_temperature;BMP_pressure;BME280_temperature;BME280_humidity;BME280_pressure;Samples;Min_cycle;Max_cycle;Signal;HPM_P1;HPM_P2
2021/12/16 00:09:55;;;;;;;16.33;8.32;;;9.10;99.90;;;;;;5011359;28;20473;-78
2021/12/16 00:31:56;;;;;;;20.00;7.47;;;8.80;99.90;;;;;;4971968;28;20553;-79
2021/12/16 00:34:25;;;;;;;18.80;8.57;;;8.50;99.90;;;;;;4956135;28;20062;-77
2021/12/16 00:36:51;;;;;;;12.50;6.97;;;8.40;99.90;;;;;;4972018;28;20065;-80
2021/12/16 00:39:31;;;;;;;13.88;8.38;;;8.30;99.90;;;;;;4973017;28;20462;-77
2021/12/16 00:42:06;;;;;;;16.88;7.72;;;8.30;99.90;;;;;;4975764;28;20069;-77
2021/12/16 00:49:48;;;;;;;12.97;8.87;;;9.30;99.90;;;;;;5014828;28;20041;-74
2021/12/16 00:55:34;;;;;;;16.48;8.23;;;8.40;99.90;;;;;;5014633;28;20056;-75
2021/12/16 00:58:00;;;;;;;16.02;7.95;;;8.30;99.90;;;;;;5014398;28;20045;-79
2021/12/16 01:00:29;;;;;;;20.85;9.25;;;8.60;99.90;;;;;;5014539;28;20053;-74
2021/12/16 01:40:54;;;;;;;16.63;7.85;;;8.30;99.90;;;;;;5055617;28;20048;-75
2021/12/16 01:51:06;;;;;;;19.92;8.57;;;8.30;99.90;;;;;;5032427;28;20085;-76
2021/12/16 01:54:25;;;;;;;15.15;8.32;;;8.90;99.90;;;;;;5016850;28;20504;-74
2021/12/16 01:58:51;;;;;;;19.15;9.27;;;8.30;99.90;;;;;;5016526;28;20178;-75
2021/12/16 02:01:20;;;;;;;17.50;7.68;;;8.70;99.90;;;;;;5033290;28;20049;-76
2021/12/16 02:03:54;;;;;;;20.48;8.95;;;8.30;99.90;;;;;;5033235;28;20057;-73
2021/12/16 02:06:58;;;;;;;14.30;8.45;;;8.30;99.90;;;;;;5032959;28;20567;-75
2021/12/16 02:09:38;;;;;;;16.95;8.35;;;8.30;99.90;;;;;;5033056;28;20482;-75
2021/12/16 02:12:21;;;;;;;18.17;8.48;;;8.30;99.90;;;;;;5033005;28;20091;-76
2021/12/16 02:38:48;;;;;;;16.33;8.20;;;8.30;99.90;;;;;;5087125;28;19928;-77
2021/12/16 02:41:15;;;;;;;21.95;8.70;;;8.30;99.90;;;;;;5054441;28;20053;-75
2021/12/16 02:49:09;;;;;;;15.65;8.65;;;9.10;99.90;;;;;;5054405;28;20499;-75
2021/12/16 02:51:35;;;;;;;20.05;9.05;;;8.40;99.90;;;;;;5054325;28;20053;-74
2021/12/16 02:54:05;;;;;;;16.98;9.18;;;8.20;99.90;;;;;;5054496;28;20075;-75
2021/12/16 02:56:31;;;;;;;19.30;9.70;;;8.20;99.90;;;;;;5054235;28;20107;-75
2021/12/16 02:58:58;;;;;;;20.00;9.35;;;9.00;99.90;;;;;;5053149;28;20040;-75
2021/12/16 03:01:34;;;;;;;18.67;9.65;;;8.30;99.90;;;;;;5054258;28;20040;-78
2021/12/16 03:04:03;;;;;;;18.08;8.40;;;8.20;99.90;;;;;;5036564;28;20049;-78
2021/12/16 03:06:31;;;;;;;24.20;10.23;;;8.20;99.90;;;;;;5053692;28;20048;-80
2021/12/16 03:08:58;;;;;;;16.95;9.15;;;9.20;99.90;;;;;;5054155;28;20100;-75
2021/12/16 03:21:32;;;;;;;15.70;9.23;;;8.20;99.90;;;;;;5053971;28;20049;-76
2021/12/16 03:34:36;;;;;;;17.75;9.45;;;8.20;99.90;;;;;;5053683;28;20057;-75
2021/12/16 03:39:42;;;;;;;23.10;9.88;;;8.40;99.90;;;;;;5053433;28;20511;-78
2021/12/16 03:42:09;;;;;;;21.27;9.88;;;8.10;99.90;;;;;;5053270;28;20059;-74
2021/12/16 03:44:51;;;;;;;;;;;8.10;99.90;;;;;;5052812;28;20132;-75
2021/12/16 03:47:20;;;;;;;19.30;9.45;;;8.70;99.90;;;;;;5053482;28;20300;-75
2021/12/16 03:49:48;;;;;;;20.27;9.80;;;8.90;99.90;;;;;;5053397;28;20081;-78
2021/12/16 03:52:14;;;;;;;18.10;10.50;;;8.10;99.90;;;;;;5053306;28;20497;-76
2021/12/16 03:54:49;;;;;;;21.58;10.23;;;9.10;99.90;;;;;;5053213;28;20132;-74
2021/12/16 03:57:17;;;;;;;20.13;11.18;;;8.10;99.90;;;;;;5053424;28;20045;-76
2021/12/16 03:59:43;;;;;;;23.90;10.02;;;9.30;99.90;;;;;;5052110;28;20053;-78
2021/12/16 04:02:24;;;;;;;17.75;9.55;;;8.20;99.90;;;;;;5052375;28;20128;-74
2021/12/16 04:04:51;;;;;;;18.98;10.18;;;8.00;99.90;;;;;;5053140;28;20040;-75
2021/12/16 04:07:22;;;;;;;19.90;11.55;;;8.00;99.90;;;;;;5051921;28;20107;-75
2021/12/16 04:09:50;;;;;;;21.05;10.57;;;8.00;99.90;;;;;;5053274;28;20083;-75
2021/12/16 04:12:20;;;;;;;20.98;10.25;;;8.00;99.90;;;;;;5053101;28;20056;-80
2021/12/16 04:14:48;;;;;;;17.85;9.30;;;9.20;99.90;;;;;;5052604;28;20049;-75
2021/12/16 04:17:15;;;;;;;19.83;10.13;;;8.50;99.90;;;;;;5052184;28;20055;-78
2021/12/16 04:19:41;;;;;;;;;;;8.30;99.90;;;;;;5053417;28;20128;-75
2021/12/16 04:22:11;;;;;;;19.88;10.20;;;8.40;99.90;;;;;;5052918;28;19971;-74
2021/12/16 04:24:39;;;;;;;24.02;11.85;;;8.40;99.90;;;;;;5053162;28;20053;-76
2021/12/16 04:27:08;;;;;;;19.48;11.23;;;8.00;99.90;;;;;;5052852;28;20504;-75
2021/12/16 04:29:34;;;;;;;20.83;10.88;;;8.00;99.90;;;;;;5085636;28;20087;-75
2021/12/16 04:32:00;;;;;;;24.08;12.30;;;8.00;99.90;;;;;;5053036;28;20053;-75
2021/12/16 04:34:26;;;;;;;22.83;11.30;;;8.00;99.90;;;;;;5052867;28;20045;-79
2021/12/16 04:36:54;;;;;;;26.58;11.65;;;8.00;99.90;;;;;;5052849;28;20045;-75
2021/12/16 04:39:23;;;;;;;25.40;11.45;;;8.00;99.90;;;;;;5051809;28;20041;-77
2021/12/16 04:41:50;;;;;;;22.08;10.32;;;8.00;99.90;;;;;;5051616;28;20443;-75
2021/12/16 04:44:17;;;;;;;19.13;11.48;;;8.00;99.90;;;;;;5052976;28;20061;-78
2021/12/16 04:46:43;;;;;;;;;;;8.50;99.90;;;;;;5053266;28;20049;-75
2021/12/16 04:49:10;;;;;;;19.92;10.65;;;7.70;99.90;;;;;;5051782;28;19927;-77
2021/12/16 04:51:39;;;;;;;23.33;11.55;;;7.90;99.90;;;;;;5052914;28;20051;-74
2021/12/16 04:54:06;;;;;;;24.55;11.10;;;7.90;99.90;;;;;;5052926;28;20048;-75
2021/12/16 04:56:32;;;;;;;26.10;11.43;;;7.90;99.90;;;;;;5052882;28;20045;-73
2021/12/16 04:58:59;;;;;;;19.50;9.68;;;7.90;99.90;;;;;;5052642;28;20045;-78
2021/12/16 05:01:26;;;;;;;23.40;11.23;;;7.90;99.90;;;;;;5052718;28;20408;-74
2021/12/16 05:03:53;;;;;;;17.45;11.18;;;8.90;99.90;;;;;;5052641;28;20059;-77
2021/12/16 05:06:19;;;;;;;23.30;11.13;;;8.00;99.90;;;;;;5051322;28;20041;-76
2021/12/16 05:08:44;;;;;;;19.25;9.60;;;8.00;99.90;;;;;;5052850;28;20045;-79
2021/12/16 05:11:14;;;;;;;22.95;10.73;;;8.00;99.90;;;;;;5051577;28;20484;-75
2021/12/16 05:13:41;;;;;;;23.05;11.52;;;8.00;99.90;;;;;;5052584;28;20041;-79
2021/12/16 05:16:08;;;;;;;24.48;10.80;;;8.90;99.90;;;;;;5052582;28;20049;-74
2021/12/16 05:18:36;;;;;;;;;;;8.00;99.90;;;;;;5052817;28;20067;-74
2021/12/16 05:21:07;;;;;;;20.60;11.52;;;8.00;99.90;;;;;;5052664;28;20011;-75
2021/12/16 05:26:21;;;;;;;18.80;11.77;;;8.10;99.90;;;;;;5053512;28;20131;-75
2021/12/16 05:28:52;;;;;;;25.10;11.88;;;8.80;99.90;;;;;;5055878;28;20037;-78
2021/12/16 05:31:20;;;;;;;25.75;12.18;;;7.90;99.90;;;;;;5054894;28;20539;-74
2021/12/16 05:33:47;;;;;;;22.42;11.65;;;7.90;99.90;;;;;;5056067;28;20498;-75
2021/12/16 05:36:12;;;;;;;23.88;11.45;;;7.90;99.90;;;;;;5055927;28;20047;-75
2021/12/16 05:38:38;;;;;;;22.00;11.20;;;8.40;99.90;;;;;;5054847;28;20052;-74
2021/12/16 05:41:08;;;;;;;24.92;12.63;;;8.00;99.90;;;;;;5055901;28;20048;-79
2021/12/16 05:43:34;;;;;;;28.00;12.13;;;9.30;99.90;;;;;;5088487;28;20048;-75
2021/12/16 05:46:02;;;;;;;23.70;12.63;;;8.00;99.90;;;;;;5055641;28;20048;-77
2021/12/16 05:48:30;;;;;;;22.23;11.23;;;7.90;99.90;;;;;;5055809;28;20045;-75
2021/12/16 05:51:04;;;;;;;22.52;12.90;;;7.80;99.90;;;;;;5054543;28;20048;-74
2021/12/16 05:53:31;;;;;;;22.42;12.88;;;7.90;99.90;;;;;;5055543;28;20055;-74
2021/12/16 05:55:58;;;;;;;32.65;12.57;;;7.90;99.90;;;;;;5055419;28;20048;-76
2021/12/16 05:58:25;;;;;;;27.58;12.80;;;7.90;99.90;;;;;;5055161;28;20087;-76
2021/12/16 06:00:55;;;;;;;20.23;11.52;;;7.90;99.90;;;;;;5055584;28;20090;-75
2021/12/16 06:03:21;;;;;;;21.45;11.02;;;8.90;99.90;;;;;;5055474;28;20048;-75
2021/12/16 06:05:48;;;;;;;26.92;12.30;;;8.00;99.90;;;;;;5054504;28;20041;-76
2021/12/16 06:08:14;;;;;;;29.90;12.93;;;7.80;99.90;;;;;;5055145;28;20515;-75
2021/12/16 06:13:31;;;;;;;21.42;11.75;;;7.80;99.90;;;;;;5054985;28;20056;-74
2021/12/16 06:29:28;;;;;;;35.50;13.60;;;8.60;99.90;;;;;;5054918;28;20053;-72
2021/12/16 06:31:54;;;;;;;27.88;13.90;;;7.80;99.90;;;;;;5054907;28;20070;-74
2021/12/16 06:34:20;;;;;;;24.48;10.75;;;7.80;99.90;;;;;;5054636;28;20048;-79
2021/12/16 06:36:46;;;;;;;27.42;13.23;;;7.70;99.90;;;;;;5053265;28;20182;-75
2021/12/16 06:39:12;;;;;;;;;;;7.80;99.90;;;;;;5055230;28;20040;-75
2021/12/16 06:41:38;;;;;;;23.92;12.15;;;7.70;99.90;;;;;;5054729;28;20380;-77
2021/12/16 06:44:14;;;;;;;30.02;14.55;;;7.70;99.90;;;;;;5054584;28;20048;-75
2021/12/16 06:46:42;;;;;;;29.20;12.27;;;7.70;99.90;;;;;;5087122;28;20053;-75
2021/12/16 06:49:11;;;;;;;23.27;13.05;;;7.70;99.90;;;;;;5053176;28;20034;-75
2021/12/16 06:51:48;;;;;;;23.05;12.95;;;7.70;99.90;;;;;;5053613;28;20083;-75
2021/12/16 06:54:22;;;;;;;23.95;12.68;;;7.70;99.90;;;;;;5054513;28;20106;-75
2021/12/16 06:59:28;;;;;;;25.77;12.40;;;7.70;99.90;;;;;;5054113;28;20048;-76
2021/12/16 07:02:19;;;;;;;24.35;13.10;;;7.70;99.90;;;;;;5054403;28;20052;-78
2021/12/16 07:04:45;;;;;;;24.58;12.80;;;7.70;99.90;;;;;;5054256;28;20049;-77
2021/12/16 07:07:13;;;;;;;24.20;12.95;;;7.70;99.90;;;;;;5053841;28;20084;-75
2021/12/16 07:09:40;;;;;;;25.75;13.32;;;7.70;99.90;;;;;;5052802;28;20484;-79
2021/12/16 07:12:08;;;;;;;;;;;7.70;99.90;;;;;;5054275;28;20642;-75
2021/12/16 07:14:39;;;;;;;22.60;13.60;;;7.70;99.90;;;;;;5086789;28;19974;-76
2021/12/16 07:17:10;;;;;;;25.88;14.02;;;7.70;99.90;;;;;;5054022;28;20045;-78
2021/12/16 07:19:36;;;;;;;27.65;15.10;;;7.60;99.90;;;;;;5053906;28;20037;-76
2021/12/16 07:22:04;;;;;;;31.45;14.38;;;8.40;99.90;;;;;;5053892;28;20123;-75
2021/12/16 07:24:29;;;;;;;26.40;14.55;;;7.60;99.90;;;;;;5053730;28;20182;-75
2021/12/16 07:26:55;;;;;;;33.42;14.90;;;7.50;99.90;;;;;;5053630;28;20060;-75
2021/12/16 07:29:21;;;;;;;27.70;13.65;;;7.50;99.90;;;;;;5053093;28;20178;-74
2021/12/16 07:31:47;;;;;;;30.52;15.80;;;7.50;99.90;;;;;;5053706;28;20084;-77
2021/12/16 07:34:13;;;;;;;26.30;14.73;;;7.90;99.90;;;;;;5053578;28;20048;-75
2021/12/16 07:36:42;;;;;;;26.35;15.93;;;7.50;99.90;;;;;;5053525;28;20041;-75
2021/12/16 07:39:11;;;;;;;27.92;14.73;;;7.50;99.90;;;;;;5052097;28;20060;-75
2021/12/16 07:41:39;;;;;;;25.60;15.90;;;7.50;99.90;;;;;;5053449;28;20056;-75
2021/12/16 07:44:10;;;;;;;28.80;15.20;;;8.90;99.90;;;;;;5052160;28;20575;-75
2021/12/16 07:46:54;;;;;;;24.35;15.13;;;8.50;99.90;;;;;;5053481;28;20095;-74
2021/12/16 07:49:26;;;;;;;25.30;14.93;;;7.50;99.90;;;;;;5052589;28;20510;-74
2021/12/16 07:51:52;;;;;;;25.55;14.70;;;7.50;99.90;;;;;;5053205;28;20044;-76
2021/12/16 07:54:19;;;;;;;29.33;14.30;;;7.80;99.90;;;;;;5053571;28;20049;-79
2021/12/16 07:56:47;;;;;;;24.88;15.77;;;7.40;99.90;;;;;;5053504;28;20049;-75
2021/12/16 07:59:12;;;;;;;27.70;14.68;;;7.40;99.90;;;;;;5051859;28;20396;-77
2021/12/16 08:01:41;;;;;;;19.42;12.82;;;7.50;99.90;;;;;;5052383;28;20128;-75
2021/12/16 08:04:10;;;;;;;27.27;15.20;;;7.50;99.90;;;;;;5053203;28;20056;-74
2021/12/16 08:06:36;;;;;;;26.80;14.43;;;7.40;99.90;;;;;;5052954;28;20107;-77
2021/12/16 08:09:09;;;;;;;27.48;15.15;;;7.50;99.90;;;;;;5053272;28;20053;-75
2021/12/16 08:11:38;;;;;;;34.30;16.60;;;7.50;99.90;;;;;;5053151;28;20045;-75
2021/12/16 08:14:05;;;;;;;29.05;15.45;;;8.30;99.90;;;;;;5053285;28;20059;-74
2021/12/16 08:16:31;;;;;;;;;;;8.60;99.90;;;;;;5052297;28;20075;-80
2021/12/16 08:18:57;;;;;;;33.25;14.40;;;7.50;99.90;;;;;;5051884;28;19932;-74
2021/12/16 08:21:27;;;;;;;34.35;16.42;;;7.50;99.90;;;;;;5051919;28;20045;-77
2021/12/16 08:23:54;;;;;;;24.55;15.13;;;7.50;99.90;;;;;;5053223;28;20045;-78
2021/12/16 08:26:20;;;;;;;25.92;13.52;;;7.70;99.90;;;;;;5052026;28;20553;-74
2021/12/16 08:28:46;;;;;;;22.45;13.88;;;8.60;99.90;;;;;;5052846;28;20060;-78
2021/12/16 08:31:13;;;;;;;26.02;14.05;;;7.60;99.90;;;;;;5053037;28;20102;-75
2021/12/16 08:33:39;;;;;;;;;;;7.60;99.90;;;;;;5053275;28;20052;-75
2021/12/16 08:36:07;;;;;;;27.67;14.55;;;7.80;99.90;;;;;;5051819;28;19972;-76
2021/12/16 08:38:33;;;;;;;26.75;13.63;;;7.60;99.90;;;;;;5053012;28;20037;-77
2021/12/16 08:41:07;;;;;;;25.48;14.48;;;7.70;99.90;;;;;;5052902;28;20044;-74
2021/12/16 08:43:34;;;;;;;27.27;14.52;;;7.70;99.90;;;;;;5052875;28;20049;-75
2021/12/16 08:46:01;;;;;;;23.00;14.02;;;9.30;99.90;;;;;;5052798;28;20041;-74
2021/12/16 08:48:27;;;;;;;24.08;13.73;;;7.70;99.90;;;;;;5052775;28;20045;-76
2021/12/16 08:50:55;;;;;;;29.88;15.40;;;7.70;99.90;;;;;;5052671;28;20518;-77
2021/12/16 08:53:22;;;;;;;25.65;13.63;;;8.20;99.90;;;;;;5052736;28;20045;-75
2021/12/16 08:55:50;;;;;;;27.05;14.25;;;8.70;99.90;;;;;;5085098;28;20045;-74
2021/12/16 08:58:16;;;;;;;27.90;14.00;;;7.80;99.90;;;;;;5051355;28;20045;-75
2021/12/16 09:00:47;;;;;;;30.02;14.90;;;7.80;99.90;;;;;;5054446;28;20052;-74
2021/12/16 09:03:13;;;;;;;25.13;14.18;;;7.80;99.90;;;;;;5056488;28;20466;-76
2021/12/16 09:05:39;;;;;;;24.75;13.70;;;7.90;99.90;;;;;;5056275;28;20049;-76
2021/12/16 09:08:05;;;;;;;28.58;14.00;;;8.50;99.90;;;;;;5056266;28;20076;-78
2021/12/16 09:10:34;;;;;;;25.67;12.90;;;7.90;99.90;;;;;;5056416;28;20484;-73
2021/12/16 09:13:03;;;;;;;29.52;14.35;;;7.90;99.90;;;;;;5056196;28;20044;-75
2021/12/16 09:15:48;;;;;;;25.83;14.65;;;8.60;99.90;;;;;;5056288;28;20044;-78
2021/12/16 09:18:17;;;;;;;27.70;13.80;;;8.00;99.90;;;;;;5056047;28;20041;-75
2021/12/16 09:20:43;;;;;;;29.08;13.88;;;9.20;99.90;;;;;;5056315;28;20131;-74
2021/12/16 09:23:10;;;;;;;28.90;15.13;;;8.10;99.90;;;;;;5056252;28;20182;-74
2021/12/16 09:25:38;;;;;;;31.48;15.75;;;7.90;99.90;;;;;;5088516;28;20407;-74
2021/12/16 09:28:04;;;;;;;34.55;15.98;;;8.90;99.90;;;;;;5055912;28;20053;-77
2021/12/16 09:30:31;;;;;;;44.38;17.48;;;8.00;99.90;;;;;;5055929;28;20048;-79
2021/12/16 09:33:00;;;;;;;38.88;16.75;;;8.60;99.90;;;;;;5055287;28;20258;-78
2021/12/16 09:35:28;;;;;;;30.25;15.20;;;8.00;99.90;;;;;;5055485;28;20467;-75
2021/12/16 09:37:55;;;;;;;37.47;15.77;;;8.00;99.90;;;;;;5055653;28;20044;-75
2021/12/16 09:40:26;;;;;;;35.17;16.55;;;8.00;99.90;;;;;;5055579;28;20045;-72
2021/12/16 09:42:52;;;;;;;41.30;16.52;;;8.80;99.90;;;;;;5055422;28;20045;-80
2021/12/16 09:45:21;;;;;;;41.70;17.35;;;8.00;99.90;;;;;;5055409;28;20048;-75
2021/12/16 09:47:47;;;;;;;42.55;19.38;;;8.00;99.90;;;;;;5088468;28;20392;-76
2021/12/16 09:50:17;;;;;;;44.75;19.42;;;8.10;99.90;;;;;;5055591;28;20045;-74
2021/12/16 09:52:42;;;;;;;36.22;17.95;;;8.10;99.90;;;;;;5055428;28;20078;-74
2021/12/16 09:55:09;;;;;;;49.72;20.67;;;8.10;99.90;;;;;;5055400;28;20045;-76
2021/12/16 09:57:36;;;;;;;51.85;21.60;;;8.10;99.90;;;;;;5054925;28;20045;-74
2021/12/16 10:00:06;;;;;;;44.17;18.83;;;8.20;99.90;;;;;;5055022;28;20623;-76
2021/12/16 10:02:32;;;;;;;56.38;23.00;;;8.10;99.90;;;;;;5055266;28;20045;-79
2021/12/16 10:04:58;;;;;;;51.63;23.65;;;9.10;99.90;;;;;;5055277;28;20090;-76
2021/12/16 10:07:27;;;;;;;58.85;22.25;;;8.10;99.90;;;;;;5054134;28;20048;-74
2021/12/16 10:09:55;;;;;;;58.28;22.65;;;8.10;99.90;;;;;;5054098;28;20068;-77
2021/12/16 10:12:27;;;;;;;60.45;23.05;;;8.20;99.90;;;;;;5054071;28;20045;-73
2021/12/16 10:17:56;;;;;;;55.80;23.08;;;8.20;99.90;;;;;;5054917;28;20437;-75
2021/12/16 10:20:32;;;;;;;73.78;23.45;;;8.20;99.90;;;;;;5054958;28;20045;-79
2021/12/16 10:23:05;;;;;;;67.07;23.90;;;8.20;99.90;;;;;;5054855;28;20052;-77
2021/12/16 10:25:42;;;;;;;59.97;24.08;;;8.20;99.90;;;;;;5054883;28;20045;-79
2021/12/16 10:28:12;;;;;;;65.82;24.10;;;8.20;99.90;;;;;;5054711;28;20416;-75
2021/12/16 10:30:53;;;;;;;64.18;24.05;;;8.20;99.90;;;;;;5054703;28;20064;-75
2021/12/16 10:33:25;;;;;;;62.53;24.92;;;8.20;99.90;;;;;;5054536;28;20515;-80
2021/12/16 10:36:01;;;;;;;60.47;25.20;;;8.20;99.90;;;;;;5054400;28;20053;-75
2021/12/16 10:38:27;;;;;;;67.55;25.38;;;8.30;99.90;;;;;;5054840;28;20045;-74
2021/12/16 10:40:56;;;;;;;71.88;23.90;;;8.30;99.90;;;;;;5054520;28;20111;-75
2021/12/16 10:43:53;;;;;;;61.35;24.05;;;8.30;99.90;;;;;;5054428;28;20044;-75
2021/12/16 10:46:30;;;;;;;86.47;27.03;;;8.30;99.90;;;;;;5052618;28;20092;-75
2021/12/16 10:49:02;;;;;;;64.25;23.45;;;8.30;99.90;;;;;;5053479;28;20048;-75
2021/12/16 10:51:29;;;;;;;61.85;24.35;;;8.30;99.90;;;;;;5054241;28;20175;-76
2021/12/16 10:54:11;;;;;;;62.88;25.67;;;8.30;99.90;;;;;;5054317;28;20053;-73
2021/12/16 10:57:03;;;;;;;78.60;27.20;;;8.30;99.90;;;;;;5053957;28;20057;-74
2021/12/16 10:59:44;;;;;;;74.82;24.75;;;8.40;99.90;;;;;;5054036;28;20071;-79
2021/12/16 11:02:17;;;;;;;93.32;29.08;;;8.30;99.90;;;;;;5053068;28;20555;-78
2021/12/16 11:04:51;;;;;;;86.20;27.02;;;8.30;99.90;;;;;;5053856;28;20148;-74
2021/12/16 11:07:26;;;;;;;91.07;26.20;;;8.30;99.90;;;;;;5053651;28;20458;-78
2021/12/16 11:10:01;;;;;;;67.57;27.30;;;8.30;99.90;;;;;;5054180;28;20492;-80
2021/12/16 11:12:33;;;;;;;89.13;28.90;;;8.30;99.90;;;;;;5054122;28;20059;-75
2021/12/16 11:15:17;;;;;;;94.63;29.55;;;8.60;99.90;;;;;;5053342;28;20045;-76
2021/12/16 11:17:52;;;;;;;76.65;28.25;;;8.30;99.90;;;;;;5053804;28;20084;-75
2021/12/16 11:20:33;;;;;;;80.93;28.23;;;8.40;99.90;;;;;;5054109;28;20048;-74
2021/12/16 11:23:12;;;;;;;88.68;26.92;;;8.30;99.90;;;;;;5086430;28;20558;-73
2021/12/16 11:26:01;;;;;;;66.43;27.65;;;8.30;99.90;;;;;;5053642;28;20476;-74
2021/12/16 11:28:35;;;;;;;95.05;28.25;;;8.30;99.90;;;;;;5053702;28;20053;-76
2021/12/16 11:31:10;;;;;;;89.80;28.58;;;8.40;99.90;;;;;;5053821;28;20051;-75
2021/12/16 11:33:39;;;;;;;95.90;30.83;;;8.30;99.90;;;;;;5060153;28;20495;-76
2021/12/16 11:36:44;;;;;;;78.13;29.05;;;8.30;99.90;;;;;;5072374;28;20045;-75
2021/12/16 11:39:13;;;;;;;74.80;28.15;;;8.30;99.90;;;;;;5051005;28;20063;-75
2021/12/16 11:41:49;;;;;;;92.32;30.83;;;8.40;99.90;;;;;;5051334;28;20083;-79
2021/12/16 11:44:32;;;;;;;97.35;28.65;;;8.40;99.90;;;;;;5051021;28;20520;-75
2021/12/16 11:47:15;;;;;;;81.88;28.80;;;8.40;99.90;;;;;;5051316;28;20048;-75
2021/12/16 11:49:45;;;;;;;72.63;26.55;;;8.30;99.90;;;;;;5051075;28;20057;-75
2021/12/16 11:52:28;;;;;;;89.95;28.67;;;8.30;99.90;;;;;;5051087;28;20436;-75
2021/12/16 11:55:04;;;;;;;85.25;27.90;;;8.30;99.90;;;;;;5034609;28;20056;-76
2021/12/16 11:57:36;;;;;;;96.50;29.35;;;8.30;99.90;;;;;;5050860;28;20143;-78
2021/12/16 12:00:15;;;;;;;93.18;28.80;;;8.30;99.90;;;;;;5050825;28;20132;-75
2021/12/16 12:02:52;;;;;;;90.90;31.17;;;8.30;99.90;;;;;;5051054;28;20053;-76
2021/12/16 12:05:27;;;;;;;97.03;29.42;;;8.30;99.90;;;;;;5051023;28;20048;-76
2021/12/16 12:08:04;;;;;;;83.85;29.48;;;8.30;99.90;;;;;;5034159;28;20048;-73
2021/12/16 12:10:43;;;;;;;83.60;29.85;;;8.30;99.90;;;;;;5050923;28;20516;-77
2021/12/16 12:13:16;;;;;;;71.57;24.20;;;8.30;99.90;;;;;;5050695;28;20135;-75
2021/12/16 12:16:03;;;;;;;77.22;27.67;;;8.40;99.90;;;;;;5064535;28;20445;-75
2021/12/16 12:18:40;;;;;;;80.07;28.38;;;8.40;99.90;;;;;;5071978;28;20173;-76
2021/12/16 12:21:18;;;;;;;65.68;27.90;;;8.30;99.90;;;;;;5073236;28;20048;-75
2021/12/16 12:23:45;;;;;;;54.15;25.83;;;8.40;99.90;;;;;;5073138;28;20080;-79
2021/12/16 12:26:16;;;;;;;69.50;26.50;;;8.40;99.90;;;;;;5071986;28;20118;-75
2021/12/16 12:28:45;;;;;;;66.75;25.05;;;8.40;99.90;;;;;;5071877;28;20060;-75
2021/12/16 12:31:12;;;;;;;55.88;25.17;;;8.40;99.90;;;;;;5072875;28;20049;-78
2021/12/16 12:33:38;;;;;;;78.35;28.95;;;8.80;99.90;;;;;;5073188;28;20133;-79
2021/12/16 12:36:04;;;;;;;66.85;27.08;;;8.40;99.90;;;;;;5075489;28;20129;-75
2021/12/16 12:38:31;;;;;;;;;;;8.40;99.90;;;;;;5077464;28;20037;-74
2021/12/16 12:40:58;;;;;;;64.17;26.83;;;9.20;99.90;;;;;;5076902;28;19931;-78
2021/12/16 12:43:24;;;;;;;58.58;25.90;;;8.40;99.90;;;;;;5076674;28;20049;-73
2021/12/16 12:45:50;;;;;;;66.07;25.33;;;8.40;99.90;;;;;;5076756;28;20079;-75
2021/12/16 12:48:19;;;;;;;64.40;25.17;;;8.40;99.90;;;;;;5076740;28;20052;-75
2021/12/16 12:50:49;;;;;;;71.93;27.98;;;9.40;99.90;;;;;;5076834;28;20066;-75
2021/12/16 12:53:23;;;;;;;55.78;25.00;;;8.30;99.90;;;;;;5076693;28;20110;-75
2021/12/16 12:55:51;;;;;;;55.25;24.33;;;8.30;99.90;;;;;;5076585;28;20048;-77
2021/12/16 12:58:21;;;;;;;54.13;25.73;;;8.30;99.90;;;;;;5076309;28;20145;-75
2021/12/16 13:00:52;;;;;;;68.97;25.92;;;8.30;99.90;;;;;;5076390;28;20070;-81
2021/12/16 13:03:40;;;;;;;66.18;26.50;;;8.40;99.90;;;;;;5076635;28;20059;-78
2021/12/16 13:06:17;;;;;;;66.43;27.35;;;8.40;99.90;;;;;;5076204;28;20091;-75
2021/12/16 13:08:50;;;;;;;69.90;28.67;;;8.40;99.90;;;;;;5076147;28;20056;-75
2021/12/16 13:11:25;;;;;;;76.93;28.85;;;8.40;99.90;;;;;;5076146;28;20496;-80
2021/12/16 13:14:35;;;;;;;78.78;29.00;;;8.40;99.90;;;;;;5076501;28;20410;-78
2021/12/16 13:28:50;;;;;;;54.22;26.33;;;8.40;99.90;;;;;;5075824;28;20048;-76
2021/12/16 13:32:17;;;;;;;53.50;25.42;;;8.40;99.90;;;;;;5063545;28;20168;-76
2021/12/16 13:35:10;;;;;;;55.42;27.35;;;8.40;99.90;;;;;;5053735;28;20049;-75
2021/12/16 13:37:43;;;;;;;45.37;25.00;;;8.40;99.90;;;;;;5055935;28;20171;-75
2021/12/16 13:40:23;;;;;;;55.95;25.67;;;8.40;99.90;;;;;;5055804;28;20049;-75
2021/12/16 13:43:02;;;;;;;55.83;26.75;;;8.40;99.90;;;;;;5055083;28;20056;-78
2021/12/16 13:45:57;;;;;;;61.38;25.83;;;8.40;99.90;;;;;;5055692;28;20087;-74
2021/12/16 14:05:31;;;;;;;53.60;26.08;;;8.40;99.90;;;;;;5054461;28;20106;-77
2021/12/16 14:08:06;;;;;;;60.08;28.25;;;8.40;99.90;;;;;;5055178;28;20140;-82
2021/12/16 14:10:44;;;;;;;54.90;28.25;;;8.40;99.90;;;;;;5055262;28;20055;-76
2021/12/16 14:16:54;;;;;;;52.50;27.23;;;8.40;99.90;;;;;;5055058;28;20407;-81
2021/12/16 14:39:47;;;;;;;48.40;25.13;;;8.40;99.90;;;;;;5054627;28;20136;-76
2021/12/16 14:45:15;;;;;;;49.80;21.77;;;8.40;99.90;;;;;;5054502;28;20045;-75
2021/12/16 14:50:27;;;;;;;43.15;23.38;;;8.40;99.90;;;;;;5054622;28;20041;-75
2021/12/16 14:52:55;;;;;;;45.60;22.63;;;8.40;99.90;;;;;;5053364;28;20057;-75
2021/12/16 14:55:23;;;;;;;51.10;23.50;;;8.40;99.90;;;;;;5053485;28;20068;-74
2021/12/16 14:57:53;;;;;;;59.20;25.33;;;8.40;99.90;;;;;;5053797;28;20053;-76
2021/12/16 15:00:30;;;;;;;47.13;24.15;;;8.40;99.90;;;;;;5053376;28;20048;-76
2021/12/16 15:03:10;;;;;;;50.88;24.25;;;8.40;99.90;;;;;;5054443;28;20165;-78
2021/12/16 15:05:47;;;;;;;42.83;23.15;;;8.40;99.90;;;;;;5054207;28;20056;-81
2021/12/16 15:08:24;;;;;;;48.83;23.83;;;8.40;99.90;;;;;;5053822;28;20144;-79
2021/12/16 15:10:54;;;;;;;51.35;23.33;;;8.40;99.90;;;;;;5053954;28;20053;-76
2021/12/16 15:44:34;;;;;;;53.53;26.02;;;8.50;99.90;;;;;;4953096;28;20078;-75
2021/12/16 15:46:59;;;;;;;53.78;24.58;;;8.50;99.90;;;;;;4952524;29;20157;-75
2021/12/16 15:49:25;;;;;;;54.75;24.63;;;8.60;99.90;;;;;;4953265;29;20055;-74
2021/12/16 15:51:52;;;;;;;61.35;25.08;;;9.20;99.90;;;;;;4953269;29;20047;-75
2021/12/16 15:54:19;;;;;;;49.17;23.50;;;8.50;99.90;;;;;;4937134;29;20114;-75
2021/12/16 15:56:49;;;;;;;46.75;23.92;;;8.50;99.90;;;;;;4937291;29;20077;-75
2021/12/16 15:59:18;;;;;;;52.95;24.85;;;8.50;99.90;;;;;;4952797;29;20126;-75
2021/12/16 16:01:50;;;;;;;63.60;25.58;;;8.60;99.90;;;;;;4953004;29;20051;-73
2021/12/16 16:04:33;;;;;;;57.08;25.15;;;9.60;99.90;;;;;;4952966;29;20463;-75
2021/12/16 16:07:05;;;;;;;52.03;24.48;;;8.60;99.90;;;;;;4952796;29;20087;-76
2021/12/16 16:09:38;;;;;;;57.63;25.33;;;8.50;99.90;;;;;;4952073;28;20047;-78
2021/12/16 16:12:04;;;;;;;60.90;26.08;;;8.60;99.90;;;;;;4953195;29;20161;-76
2021/12/16 16:14:32;;;;;;;;;;;8.60;99.90;;;;;;4945068;28;20125;-78
2021/12/16 16:17:00;;;;;;;61.15;27.20;;;8.60;99.90;;;;;;5033289;28;19925;-78
2021/12/16 16:19:34;;;;;;;65.65;25.08;;;8.60;99.90;;;;;;5032244;28;20049;-76
2021/12/16 16:22:04;;;;;;;64.93;25.35;;;8.60;99.90;;;;;;5033121;28;20037;-76
2021/12/16 16:24:38;;;;;;;65.18;26.33;;;8.60;99.90;;;;;;5033013;28;20132;-75
2021/12/16 16:27:07;;;;;;;57.38;25.88;;;8.60;99.90;;;;;;5033194;28;20095;-75
2021/12/16 16:29:35;;;;;;;65.13;27.05;;;8.50;99.90;;;;;;5033072;28;20046;-75
2021/12/16 16:32:02;;;;;;;63.80;25.98;;;9.60;99.90;;;;;;5033145;28;20042;-75
2021/12/16 16:34:31;;;;;;;56.28;24.23;;;8.50;99.90;;;;;;5032942;28;20046;-75
2021/12/16 16:37:04;;;;;;;59.13;25.25;;;8.70;99.90;;;;;;5032940;28;20049;-77
2021/12/16 16:39:33;;;;;;;51.47;22.15;;;8.40;99.90;;;;;;5033079;28;20120;-79
2021/12/16 16:42:05;;;;;;;50.17;23.63;;;8.60;99.90;;;;;;5033139;28;20064;-75
2021/12/16 16:44:31;;;;;;;52.92;24.27;;;8.50;99.90;;;;;;5032605;28;20400;-75
2021/12/16 16:47:28;;;;;;;60.60;24.95;;;8.50;99.90;;;;;;5032960;28;20049;-79
2021/12/16 16:49:55;;;;;;;57.17;22.40;;;8.40;99.90;;;;;;5031849;28;20063;-75
2021/12/16 16:52:25;;;;;;;67.05;24.45;;;8.40;99.90;;;;;;5033055;28;20075;-77
2021/12/16 16:55:00;;;;;;;58.55;23.75;;;8.80;99.90;;;;;;5032854;28;20050;-75
2021/12/16 16:57:32;;;;;;;47.00;22.40;;;9.60;99.90;;;;;;5032848;28;20050;-80
2021/12/16 17:00:01;;;;;;;59.13;24.88;;;8.40;99.90;;;;;;5032544;28;20046;-76
2021/12/16 17:02:55;;;;;;;51.67;23.25;;;8.40;99.90;;;;;;5032948;28;20049;-75
2021/12/16 17:05:33;;;;;;;58.60;24.45;;;8.40;99.90;;;;;;5010690;28;20054;-75
2021/12/16 17:08:03;;;;;;;79.07;26.50;;;8.40;99.90;;;;;;5010683;28;20058;-79
2021/12/16 17:10:50;;;;;;;78.75;29.05;;;9.20;99.90;;;;;;5010798;28;20470;-75
2021/12/16 17:13:21;;;;;;;56.03;25.30;;;8.60;99.90;;;;;;4994584;28;20081;-74